sensor_id;sensor_type;location;lat;lon;timestamp;P1;durP1;ratioP1;P2;durP2;ratioP2
45792;SDS011;31495;42.740;22.908;2023-08-07T00:00:29;1.63;;;0.77;;
45792;SDS011;31495;42.740;22.908;2023-08-07T00:01:29;1.20;;;0.60;;
45792;SDS011;31495;42.740;22.908;2023-08-07T00:02:28;1.63;;;0.88;;
45792;SDS011;31495;42.740;22.908;2023-08-07T00:03:28;1.75;;;0.70;;
45792;SDS011;31495;42.740;22.908;2023-08-07T00:04:27;1.38;;;0.93;;
45792;SDS011;31495;42.740;22.908;2023-08-07T00:05:27;3.47;;;0.95;;
45792;SDS011;31495;42.740;22.908;2023-08-07T00:06:27;2.85;;;0.85;;
45792;SDS011;31495;42.740;22.908;2023-08-07T00:07:26;2.45;;;0.90;;
45792;SDS011;31495;42.740;22.908;2023-08-07T00:08:26;1.52;;;0.88;;
45792;SDS011;31495;42.740;22.908;2023-08-07T00:09:25;1.40;;;0.73;;
45792;SDS011;31495;42.740;22.908;2023-08-07T00:10:25;1.90;;;0.80;;
45792;SDS011;31495;42.740;22.908;2023-08-07T00:11:25;1.95;;;1.25;;
45792;SDS011;31495;42.740;22.908;2023-08-07T00:12:27;1.88;;;0.90;;
45792;SDS011;31495;42.740;22.908;2023-08-07T00:13:26;1.85;;;1.00;;
45792;SDS011;31495;42.740;22.908;2023-08-07T00:14:26;1.35;;;0.68;;
45792;SDS011;31495;42.740;22.908;2023-08-07T00:15:25;2.70;;;0.82;;
45792;SDS011;31495;42.740;22.908;2023-08-07T00:16:25;1.40;;;0.90;;
45792;SDS011;31495;42.740;22.908;2023-08-07T00:17:24;2.38;;;1.13;;
45792;SDS011;31495;42.740;22.908;2023-08-07T00:18:24;2.22;;;1.00;;
45792;SDS011;31495;42.740;22.908;2023-08-07T00:19:23;5.97;;;1.67;;
45792;SDS011;31495;42.740;22.908;2023-08-07T00:20:23;1.40;;;0.95;;
45792;SDS011;31495;42.740;22.908;2023-08-07T00:21:22;4.32;;;0.95;;
45792;SDS011;31495;42.740;22.908;2023-08-07T00:22:22;2.60;;;1.23;;
45792;SDS011;31495;42.740;22.908;2023-08-07T00:23:22;1.70;;;1.00;;
45792;SDS011;31495;42.740;22.908;2023-08-07T00:24:21;1.40;;;0.90;;
45792;SDS011;31495;42.740;22.908;2023-08-07T00:25:21;1.83;;;1.08;;
45792;SDS011;31495;42.740;22.908;2023-08-07T00:26:20;1.98;;;1.05;;
45792;SDS011;31495;42.740;22.908;2023-08-07T00:27:20;1.60;;;0.90;;
45792;SDS011;31495;42.740;22.908;2023-08-07T00:28:19;3.65;;;1.55;;
45792;SDS011;31495;42.740;22.908;2023-08-07T00:29:19;2.65;;;1.02;;
45792;SDS011;31495;42.740;22.908;2023-08-07T00:30:18;1.60;;;0.90;;
45792;SDS011;31495;42.740;22.908;2023-08-07T00:31:17;2.03;;;1.08;;
45792;SDS011;31495;42.740;22.908;2023-08-07T00:32:17;1.75;;;0.93;;
45792;SDS011;31495;42.740;22.908;2023-08-07T00:33:16;1.98;;;1.00;;
45792;SDS011;31495;42.740;22.908;2023-08-07T00:34:16;1.70;;;1.00;;
45792;SDS011;31495;42.740;22.908;2023-08-07T00:35:15;1.35;;;0.98;;
45792;SDS011;31495;42.740;22.908;2023-08-07T00:36:15;1.63;;;1.00;;
45792;SDS011;31495;42.740;22.908;2023-08-07T00:37:14;2.55;;;1.40;;
45792;SDS011;31495;42.740;22.908;2023-08-07T00:38:14;1.85;;;1.13;;
45792;SDS011;31495;42.740;22.908;2023-08-07T00:39:14;3.05;;;1.88;;
45792;SDS011;31495;42.740;22.908;2023-08-07T00:40:13;1.90;;;0.98;;
45792;SDS011;31495;42.740;22.908;2023-08-07T00:41:13;7.55;;;1.50;;
45792;SDS011;31495;42.740;22.908;2023-08-07T00:42:12;2.58;;;1.42;;
45792;SDS011;31495;42.740;22.908;2023-08-07T00:43:12;1.85;;;1.02;;
45792;SDS011;31495;42.740;22.908;2023-08-07T00:44:12;2.03;;;1.10;;
45792;SDS011;31495;42.740;22.908;2023-08-07T00:45:11;5.13;;;1.38;;
45792;SDS011;31495;42.740;22.908;2023-08-07T00:46:11;1.98;;;1.30;;
45792;SDS011;31495;42.740;22.908;2023-08-07T00:47:11;3.25;;;1.50;;
45792;SDS011;31495;42.740;22.908;2023-08-07T00:48:11;2.00;;;1.33;;
45792;SDS011;31495;42.740;22.908;2023-08-07T00:49:11;2.67;;;1.60;;
45792;SDS011;31495;42.740;22.908;2023-08-07T00:50:11;5.80;;;1.42;;
45792;SDS011;31495;42.740;22.908;2023-08-07T00:51:11;1.73;;;1.20;;
45792;SDS011;31495;42.740;22.908;2023-08-07T00:52:11;3.95;;;1.50;;
45792;SDS011;31495;42.740;22.908;2023-08-07T00:53:11;2.40;;;1.73;;
45792;SDS011;31495;42.740;22.908;2023-08-07T00:54:11;6.35;;;1.83;;
45792;SDS011;31495;42.740;22.908;2023-08-07T00:55:14;2.80;;;1.50;;
45792;SDS011;31495;42.740;22.908;2023-08-07T00:56:14;3.78;;;1.85;;
45792;SDS011;31495;42.740;22.908;2023-08-07T00:57:14;2.50;;;1.75;;
45792;SDS011;31495;42.740;22.908;2023-08-07T00:58:14;2.20;;;1.40;;
45792;SDS011;31495;42.740;22.908;2023-08-07T00:59:14;3.00;;;1.77;;
45792;SDS011;31495;42.740;22.908;2023-08-07T01:00:15;3.83;;;1.88;;
45792;SDS011;31495;42.740;22.908;2023-08-07T01:01:15;4.80;;;1.63;;
45792;SDS011;31495;42.740;22.908;2023-08-07T01:02:15;3.88;;;2.35;;
45792;SDS011;31495;42.740;22.908;2023-08-07T01:03:14;2.38;;;1.35;;
45792;SDS011;31495;42.740;22.908;2023-08-07T01:04:13;1.98;;;1.25;;
45792;SDS011;31495;42.740;22.908;2023-08-07T01:05:13;5.75;;;1.70;;
45792;SDS011;31495;42.740;22.908;2023-08-07T01:06:12;4.45;;;1.90;;
45792;SDS011;31495;42.740;22.908;2023-08-07T01:07:12;5.28;;;1.67;;
45792;SDS011;31495;42.740;22.908;2023-08-07T01:08:11;2.67;;;1.70;;
45792;SDS011;31495;42.740;22.908;2023-08-07T01:09:11;2.78;;;1.80;;
45792;SDS011;31495;42.740;22.908;2023-08-07T01:10:10;3.88;;;1.42;;
45792;SDS011;31495;42.740;22.908;2023-08-07T01:11:32;5.55;;;1.63;;
45792;SDS011;31495;42.740;22.908;2023-08-07T01:12:48;2.00;;;1.30;;
45792;SDS011;31495;42.740;22.908;2023-08-07T01:15:27;2.08;;;1.40;;
45792;SDS011;31495;42.740;22.908;2023-08-07T01:16:36;5.82;;;1.73;;
45792;SDS011;31495;42.740;22.908;2023-08-07T01:17:42;5.15;;;2.35;;
45792;SDS011;31495;42.740;22.908;2023-08-07T01:18:43;2.00;;;1.42;;
45792;SDS011;31495;42.740;22.908;2023-08-07T01:19:45;2.28;;;1.50;;
45792;SDS011;31495;42.740;22.908;2023-08-07T01:20:46;4.93;;;1.40;;
45792;SDS011;31495;42.740;22.908;2023-08-07T01:21:48;6.32;;;1.52;;
45792;SDS011;31495;42.740;22.908;2023-08-07T01:22:47;5.22;;;1.92;;
45792;SDS011;31495;42.740;22.908;2023-08-07T01:23:47;5.30;;;1.98;;
45792;SDS011;31495;42.740;22.908;2023-08-07T01:24:50;2.65;;;1.60;;
45792;SDS011;31495;42.740;22.908;2023-08-07T01:25:51;2.35;;;1.48;;
45792;SDS011;31495;42.740;22.908;2023-08-07T01:26:51;2.05;;;1.50;;
45792;SDS011;31495;42.740;22.908;2023-08-07T01:29:04;3.05;;;1.70;;
45792;SDS011;31495;42.740;22.908;2023-08-07T01:30:14;3.25;;;1.95;;
45792;SDS011;31495;42.740;22.908;2023-08-07T01:31:18;5.35;;;1.73;;
45792;SDS011;31495;42.740;22.908;2023-08-07T01:32:34;2.72;;;1.67;;
45792;SDS011;31495;42.740;22.908;2023-08-07T01:33:45;2.90;;;1.88;;
45792;SDS011;31495;42.740;22.908;2023-08-07T01:34:51;3.30;;;1.27;;
45792;SDS011;31495;42.740;22.908;2023-08-07T01:35:55;1.98;;;1.13;;
45792;SDS011;31495;42.740;22.908;2023-08-07T01:36:57;1.92;;;1.42;;
45792;SDS011;31495;42.740;22.908;2023-08-07T01:37:58;4.82;;;2.17;;
45792;SDS011;31495;42.740;22.908;2023-08-07T01:38:59;3.42;;;1.40;;
45792;SDS011;31495;42.740;22.908;2023-08-07T01:40:00;2.30;;;1.83;;
45792;SDS011;31495;42.740;22.908;2023-08-07T01:41:03;2.97;;;1.80;;
45792;SDS011;31495;42.740;22.908;2023-08-07T01:42:03;5.15;;;1.92;;
45792;SDS011;31495;42.740;22.908;2023-08-07T01:43:04;2.80;;;1.58;;
45792;SDS011;31495;42.740;22.908;2023-08-07T01:44:04;5.43;;;1.55;;
45792;SDS011;31495;42.740;22.908;2023-08-07T01:45:04;2.22;;;1.65;;
45792;SDS011;31495;42.740;22.908;2023-08-07T01:46:05;3.28;;;1.77;;
45792;SDS011;31495;42.740;22.908;2023-08-07T01:47:05;3.35;;;1.90;;
45792;SDS011;31495;42.740;22.908;2023-08-07T01:48:05;2.78;;;1.58;;
45792;SDS011;31495;42.740;22.908;2023-08-07T01:49:04;3.47;;;1.50;;
45792;SDS011;31495;42.740;22.908;2023-08-07T01:50:03;6.15;;;2.25;;
45792;SDS011;31495;42.740;22.908;2023-08-07T01:51:03;2.40;;;1.50;;
45792;SDS011;31495;42.740;22.908;2023-08-07T01:52:03;3.30;;;2.17;;
45792;SDS011;31495;42.740;22.908;2023-08-07T01:53:03;2.45;;;1.70;;
45792;SDS011;31495;42.740;22.908;2023-08-07T01:54:03;2.60;;;1.67;;
45792;SDS011;31495;42.740;22.908;2023-08-07T01:55:02;2.75;;;1.67;;
45792;SDS011;31495;42.740;22.908;2023-08-07T01:56:01;2.17;;;1.70;;
45792;SDS011;31495;42.740;22.908;2023-08-07T01:57:02;3.70;;;2.30;;
45792;SDS011;31495;42.740;22.908;2023-08-07T01:58:02;3.25;;;1.83;;
45792;SDS011;31495;42.740;22.908;2023-08-07T01:59:02;3.50;;;2.20;;
45792;SDS011;31495;42.740;22.908;2023-08-07T02:00:01;3.00;;;2.17;;
45792;SDS011;31495;42.740;22.908;2023-08-07T02:01:02;3.63;;;2.20;;
45792;SDS011;31495;42.740;22.908;2023-08-07T02:02:02;2.70;;;1.98;;
45792;SDS011;31495;42.740;22.908;2023-08-07T02:03:02;3.03;;;2.13;;
45792;SDS011;31495;42.740;22.908;2023-08-07T02:04:02;5.22;;;2.10;;
45792;SDS011;31495;42.740;22.908;2023-08-07T02:05:02;3.00;;;1.80;;
45792;SDS011;31495;42.740;22.908;2023-08-07T02:06:02;2.45;;;1.83;;
45792;SDS011;31495;42.740;22.908;2023-08-07T02:07:02;2.20;;;1.60;;
45792;SDS011;31495;42.740;22.908;2023-08-07T02:08:02;2.53;;;1.83;;
45792;SDS011;31495;42.740;22.908;2023-08-07T02:09:01;2.85;;;1.73;;
45792;SDS011;31495;42.740;22.908;2023-08-07T02:10:01;2.75;;;1.70;;
45792;SDS011;31495;42.740;22.908;2023-08-07T02:11:00;2.58;;;1.83;;
45792;SDS011;31495;42.740;22.908;2023-08-07T02:12:02;2.88;;;1.95;;
45792;SDS011;31495;42.740;22.908;2023-08-07T02:13:02;2.70;;;2.03;;
45792;SDS011;31495;42.740;22.908;2023-08-07T02:14:01;3.30;;;2.22;;
45792;SDS011;31495;42.740;22.908;2023-08-07T02:15:01;3.08;;;2.22;;
45792;SDS011;31495;42.740;22.908;2023-08-07T02:16:01;3.60;;;2.17;;
45792;SDS011;31495;42.740;22.908;2023-08-07T02:17:02;5.20;;;2.70;;
45792;SDS011;31495;42.740;22.908;2023-08-07T02:18:01;2.47;;;1.88;;
45792;SDS011;31495;42.740;22.908;2023-08-07T02:19:01;3.10;;;2.15;;
45792;SDS011;31495;42.740;22.908;2023-08-07T02:20:00;2.40;;;1.83;;
45792;SDS011;31495;42.740;22.908;2023-08-07T02:21:00;3.28;;;2.20;;
45792;SDS011;31495;42.740;22.908;2023-08-07T02:21:59;4.05;;;2.13;;
45792;SDS011;31495;42.740;22.908;2023-08-07T02:23:00;4.15;;;2.08;;
45792;SDS011;31495;42.740;22.908;2023-08-07T02:24:00;2.75;;;1.90;;
45792;SDS011;31495;42.740;22.908;2023-08-07T02:24:59;2.13;;;1.48;;
45792;SDS011;31495;42.740;22.908;2023-08-07T02:25:59;3.38;;;2.00;;
45792;SDS011;31495;42.740;22.908;2023-08-07T02:26:58;2.65;;;2.13;;
45792;SDS011;31495;42.740;22.908;2023-08-07T02:27:58;3.95;;;2.47;;
45792;SDS011;31495;42.740;22.908;2023-08-07T02:28:57;3.78;;;2.05;;
45792;SDS011;31495;42.740;22.908;2023-08-07T02:29:56;3.65;;;2.50;;
45792;SDS011;31495;42.740;22.908;2023-08-07T02:30:56;4.80;;;2.40;;
45792;SDS011;31495;42.740;22.908;2023-08-07T02:31:55;5.53;;;2.22;;
45792;SDS011;31495;42.740;22.908;2023-08-07T02:32:55;5.18;;;2.35;;
45792;SDS011;31495;42.740;22.908;2023-08-07T02:33:54;5.10;;;2.15;;
45792;SDS011;31495;42.740;22.908;2023-08-07T02:34:53;7.60;;;2.08;;
45792;SDS011;31495;42.740;22.908;2023-08-07T02:35:53;4.13;;;2.00;;
45792;SDS011;31495;42.740;22.908;2023-08-07T02:36:52;3.20;;;2.17;;
45792;SDS011;31495;42.740;22.908;2023-08-07T02:37:51;2.88;;;1.88;;
45792;SDS011;31495;42.740;22.908;2023-08-07T02:38:51;3.25;;;1.85;;
45792;SDS011;31495;42.740;22.908;2023-08-07T02:39:50;4.97;;;2.63;;
45792;SDS011;31495;42.740;22.908;2023-08-07T02:40:50;3.72;;;2.65;;
45792;SDS011;31495;42.740;22.908;2023-08-07T02:41:50;2.72;;;2.30;;
45792;SDS011;31495;42.740;22.908;2023-08-07T02:42:49;3.20;;;2.25;;
45792;SDS011;31495;42.740;22.908;2023-08-07T02:43:48;5.93;;;2.20;;
45792;SDS011;31495;42.740;22.908;2023-08-07T02:44:48;3.53;;;2.35;;
45792;SDS011;31495;42.740;22.908;2023-08-07T02:45:47;3.22;;;2.10;;
45792;SDS011;31495;42.740;22.908;2023-08-07T02:46:46;3.00;;;1.80;;
45792;SDS011;31495;42.740;22.908;2023-08-07T02:47:46;3.78;;;2.10;;
45792;SDS011;31495;42.740;22.908;2023-08-07T02:48:45;4.95;;;2.38;;
45792;SDS011;31495;42.740;22.908;2023-08-07T02:49:45;3.25;;;2.50;;
45792;SDS011;31495;42.740;22.908;2023-08-07T02:50:44;3.47;;;2.40;;
45792;SDS011;31495;42.740;22.908;2023-08-07T02:51:44;2.80;;;2.28;;
45792;SDS011;31495;42.740;22.908;2023-08-07T02:52:43;3.22;;;2.22;;
45792;SDS011;31495;42.740;22.908;2023-08-07T02:53:42;3.33;;;2.42;;
45792;SDS011;31495;42.740;22.908;2023-08-07T02:54:42;3.70;;;3.03;;
45792;SDS011;31495;42.740;22.908;2023-08-07T02:55:42;4.72;;;2.85;;
45792;SDS011;31495;42.740;22.908;2023-08-07T02:56:42;5.20;;;2.80;;
45792;SDS011;31495;42.740;22.908;2023-08-07T02:57:42;5.43;;;2.70;;
45792;SDS011;31495;42.740;22.908;2023-08-07T02:58:41;4.90;;;2.80;;
45792;SDS011;31495;42.740;22.908;2023-08-07T02:59:41;4.20;;;2.63;;
45792;SDS011;31495;42.740;22.908;2023-08-07T03:00:40;3.30;;;2.47;;
45792;SDS011;31495;42.740;22.908;2023-08-07T03:01:40;3.50;;;2.78;;
45792;SDS011;31495;42.740;22.908;2023-08-07T03:02:39;4.40;;;2.60;;
45792;SDS011;31495;42.740;22.908;2023-08-07T03:03:39;3.53;;;2.60;;
45792;SDS011;31495;42.740;22.908;2023-08-07T03:04:38;3.33;;;2.28;;
45792;SDS011;31495;42.740;22.908;2023-08-07T03:05:37;2.95;;;2.22;;
45792;SDS011;31495;42.740;22.908;2023-08-07T03:06:37;5.50;;;2.80;;
45792;SDS011;31495;42.740;22.908;2023-08-07T03:07:36;4.32;;;2.83;;
45792;SDS011;31495;42.740;22.908;2023-08-07T03:08:36;3.53;;;2.55;;
45792;SDS011;31495;42.740;22.908;2023-08-07T03:09:36;5.53;;;2.45;;
45792;SDS011;31495;42.740;22.908;2023-08-07T03:10:35;4.85;;;2.60;;
45792;SDS011;31495;42.740;22.908;2023-08-07T03:11:34;3.42;;;2.33;;
45792;SDS011;31495;42.740;22.908;2023-08-07T03:12:34;5.60;;;2.63;;
45792;SDS011;31495;42.740;22.908;2023-08-07T03:13:33;3.05;;;2.55;;
45792;SDS011;31495;42.740;22.908;2023-08-07T03:14:32;5.20;;;2.95;;
45792;SDS011;31495;42.740;22.908;2023-08-07T03:15:32;7.65;;;3.35;;
45792;SDS011;31495;42.740;22.908;2023-08-07T03:16:31;6.25;;;2.88;;
45792;SDS011;31495;42.740;22.908;2023-08-07T03:17:32;4.13;;;2.67;;
45792;SDS011;31495;42.740;22.908;2023-08-07T03:18:32;6.35;;;3.38;;
45792;SDS011;31495;42.740;22.908;2023-08-07T03:19:32;4.22;;;2.72;;
45792;SDS011;31495;42.740;22.908;2023-08-07T03:20:31;4.70;;;2.78;;
45792;SDS011;31495;42.740;22.908;2023-08-07T03:21:31;4.80;;;2.97;;
45792;SDS011;31495;42.740;22.908;2023-08-07T03:22:30;6.35;;;2.80;;
45792;SDS011;31495;42.740;22.908;2023-08-07T03:23:29;4.13;;;2.92;;
45792;SDS011;31495;42.740;22.908;2023-08-07T03:24:29;5.68;;;2.90;;
45792;SDS011;31495;42.740;22.908;2023-08-07T03:25:28;4.78;;;3.13;;
45792;SDS011;31495;42.740;22.908;2023-08-07T03:26:28;3.42;;;2.72;;
45792;SDS011;31495;42.740;22.908;2023-08-07T03:27:27;5.20;;;3.53;;
45792;SDS011;31495;42.740;22.908;2023-08-07T03:28:27;3.67;;;2.85;;
45792;SDS011;31495;42.740;22.908;2023-08-07T03:29:27;5.68;;;3.17;;
45792;SDS011;31495;42.740;22.908;2023-08-07T03:30:26;3.75;;;2.60;;
45792;SDS011;31495;42.740;22.908;2023-08-07T03:31:26;3.90;;;2.70;;
45792;SDS011;31495;42.740;22.908;2023-08-07T03:32:25;5.25;;;2.95;;
45792;SDS011;31495;42.740;22.908;2023-08-07T03:33:24;4.22;;;3.22;;
45792;SDS011;31495;42.740;22.908;2023-08-07T03:34:24;5.78;;;3.47;;
45792;SDS011;31495;42.740;22.908;2023-08-07T03:35:23;6.40;;;3.35;;
45792;SDS011;31495;42.740;22.908;2023-08-07T03:36:23;7.45;;;3.60;;
45792;SDS011;31495;42.740;22.908;2023-08-07T03:37:22;6.47;;;3.33;;
45792;SDS011;31495;42.740;22.908;2023-08-07T03:38:22;5.15;;;3.75;;
45792;SDS011;31495;42.740;22.908;2023-08-07T03:39:21;4.85;;;3.00;;
45792;SDS011;31495;42.740;22.908;2023-08-07T03:40:21;4.88;;;3.20;;
45792;SDS011;31495;42.740;22.908;2023-08-07T03:41:20;4.55;;;3.33;;
45792;SDS011;31495;42.740;22.908;2023-08-07T03:42:20;6.97;;;3.08;;
45792;SDS011;31495;42.740;22.908;2023-08-07T03:43:19;3.72;;;2.83;;
45792;SDS011;31495;42.740;22.908;2023-08-07T03:44:18;5.82;;;2.85;;
45792;SDS011;31495;42.740;22.908;2023-08-07T03:45:18;6.28;;;2.50;;
45792;SDS011;31495;42.740;22.908;2023-08-07T03:46:17;8.88;;;3.65;;
45792;SDS011;31495;42.740;22.908;2023-08-07T03:47:17;5.25;;;3.10;;
45792;SDS011;31495;42.740;22.908;2023-08-07T03:48:16;4.95;;;3.13;;
45792;SDS011;31495;42.740;22.908;2023-08-07T03:49:15;6.65;;;3.60;;
45792;SDS011;31495;42.740;22.908;2023-08-07T03:50:15;8.80;;;2.90;;
45792;SDS011;31495;42.740;22.908;2023-08-07T03:51:14;4.18;;;2.75;;
45792;SDS011;31495;42.740;22.908;2023-08-07T03:52:15;5.57;;;3.42;;
45792;SDS011;31495;42.740;22.908;2023-08-07T03:53:17;3.58;;;2.67;;
45792;SDS011;31495;42.740;22.908;2023-08-07T03:54:16;4.20;;;2.80;;
45792;SDS011;31495;42.740;22.908;2023-08-07T03:55:16;4.00;;;3.20;;
45792;SDS011;31495;42.740;22.908;2023-08-07T03:56:15;3.20;;;2.35;;
45792;SDS011;31495;42.740;22.908;2023-08-07T03:57:15;4.05;;;3.10;;
45792;SDS011;31495;42.740;22.908;2023-08-07T03:58:14;4.93;;;3.35;;
45792;SDS011;31495;42.740;22.908;2023-08-07T03:59:14;4.38;;;3.25;;
45792;SDS011;31495;42.740;22.908;2023-08-07T04:00:13;4.40;;;2.90;;
45792;SDS011;31495;42.740;22.908;2023-08-07T04:01:13;5.70;;;3.45;;
45792;SDS011;31495;42.740;22.908;2023-08-07T04:02:12;4.28;;;3.22;;
45792;SDS011;31495;42.740;22.908;2023-08-07T04:03:12;5.63;;;3.03;;
45792;SDS011;31495;42.740;22.908;2023-08-07T04:04:11;3.92;;;2.80;;
45792;SDS011;31495;42.740;22.908;2023-08-07T04:05:10;4.05;;;2.70;;
45792;SDS011;31495;42.740;22.908;2023-08-07T04:06:10;6.55;;;2.78;;
45792;SDS011;31495;42.740;22.908;2023-08-07T04:07:14;4.47;;;3.17;;
45792;SDS011;31495;42.740;22.908;2023-08-07T04:08:14;5.03;;;3.22;;
45792;SDS011;31495;42.740;22.908;2023-08-07T04:09:14;4.22;;;2.97;;
45792;SDS011;31495;42.740;22.908;2023-08-07T04:10:13;5.85;;;2.80;;
45792;SDS011;31495;42.740;22.908;2023-08-07T04:11:13;3.10;;;2.58;;
45792;SDS011;31495;42.740;22.908;2023-08-07T04:12:12;3.70;;;2.90;;
45792;SDS011;31495;42.740;22.908;2023-08-07T04:13:12;5.63;;;3.97;;
45792;SDS011;31495;42.740;22.908;2023-08-07T04:14:11;5.47;;;2.90;;
45792;SDS011;31495;42.740;22.908;2023-08-07T04:15:11;4.05;;;2.88;;
45792;SDS011;31495;42.740;22.908;2023-08-07T04:16:10;4.45;;;3.47;;
45792;SDS011;31495;42.740;22.908;2023-08-07T04:17:10;4.75;;;3.60;;
45792;SDS011;31495;42.740;22.908;2023-08-07T04:18:10;4.95;;;3.55;;
45792;SDS011;31495;42.740;22.908;2023-08-07T04:19:11;7.55;;;3.63;;
45792;SDS011;31495;42.740;22.908;2023-08-07T04:20:11;4.68;;;3.35;;
45792;SDS011;31495;42.740;22.908;2023-08-07T04:21:11;4.85;;;3.08;;
45792;SDS011;31495;42.740;22.908;2023-08-07T04:22:10;4.22;;;3.10;;
45792;SDS011;31495;42.740;22.908;2023-08-07T04:23:09;6.35;;;3.30;;
45792;SDS011;31495;42.740;22.908;2023-08-07T04:24:09;4.40;;;3.22;;
45792;SDS011;31495;42.740;22.908;2023-08-07T04:25:10;4.15;;;3.63;;
45792;SDS011;31495;42.740;22.908;2023-08-07T04:26:09;3.17;;;2.40;;
45792;SDS011;31495;42.740;22.908;2023-08-07T04:27:08;5.45;;;3.47;;
45792;SDS011;31495;42.740;22.908;2023-08-07T04:28:08;5.90;;;3.60;;
45792;SDS011;31495;42.740;22.908;2023-08-07T04:29:08;4.78;;;3.17;;
45792;SDS011;31495;42.740;22.908;2023-08-07T04:30:07;4.65;;;3.13;;
45792;SDS011;31495;42.740;22.908;2023-08-07T04:31:07;4.32;;;2.97;;
45792;SDS011;31495;42.740;22.908;2023-08-07T04:32:07;4.85;;;3.50;;
45792;SDS011;31495;42.740;22.908;2023-08-07T04:33:07;4.82;;;3.50;;
45792;SDS011;31495;42.740;22.908;2023-08-07T04:34:06;9.98;;;3.35;;
45792;SDS011;31495;42.740;22.908;2023-08-07T04:35:06;6.70;;;3.58;;
45792;SDS011;31495;42.740;22.908;2023-08-07T04:36:06;7.15;;;3.97;;
45792;SDS011;31495;42.740;22.908;2023-08-07T04:37:06;3.72;;;2.95;;
45792;SDS011;31495;42.740;22.908;2023-08-07T04:38:06;4.45;;;3.42;;
45792;SDS011;31495;42.740;22.908;2023-08-07T04:39:05;5.07;;;2.95;;
45792;SDS011;31495;42.740;22.908;2023-08-07T04:40:04;4.28;;;2.90;;
45792;SDS011;31495;42.740;22.908;2023-08-07T04:41:04;5.00;;;3.85;;
45792;SDS011;31495;42.740;22.908;2023-08-07T04:42:04;4.38;;;3.00;;
45792;SDS011;31495;42.740;22.908;2023-08-07T04:43:04;3.75;;;2.92;;
45792;SDS011;31495;42.740;22.908;2023-08-07T04:44:03;7.63;;;3.25;;
45792;SDS011;31495;42.740;22.908;2023-08-07T04:45:03;4.20;;;3.45;;
45792;SDS011;31495;42.740;22.908;2023-08-07T04:46:03;4.00;;;2.92;;
45792;SDS011;31495;42.740;22.908;2023-08-07T04:47:02;4.07;;;2.97;;
45792;SDS011;31495;42.740;22.908;2023-08-07T04:48:02;7.15;;;3.13;;
45792;SDS011;31495;42.740;22.908;2023-08-07T04:49:01;8.00;;;3.13;;
45792;SDS011;31495;42.740;22.908;2023-08-07T04:50:00;4.72;;;2.97;;
45792;SDS011;31495;42.740;22.908;2023-08-07T04:51:00;3.60;;;2.42;;
45792;SDS011;31495;42.740;22.908;2023-08-07T04:51:59;3.78;;;2.80;;
45792;SDS011;31495;42.740;22.908;2023-08-07T04:52:58;3.78;;;2.97;;
45792;SDS011;31495;42.740;22.908;2023-08-07T04:53:58;3.15;;;2.80;;
45792;SDS011;31495;42.740;22.908;2023-08-07T04:54:57;6.28;;;3.28;;
45792;SDS011;31495;42.740;22.908;2023-08-07T04:55:56;11.80;;;9.23;;
45792;SDS011;31495;42.740;22.908;2023-08-07T04:56:56;8.40;;;6.43;;
45792;SDS011;31495;42.740;22.908;2023-08-07T04:57:55;8.98;;;7.07;;
45792;SDS011;31495;42.740;22.908;2023-08-07T04:58:55;5.20;;;4.43;;
45792;SDS011;31495;42.740;22.908;2023-08-07T04:59:55;6.75;;;3.10;;
45792;SDS011;31495;42.740;22.908;2023-08-07T05:00:55;4.25;;;3.25;;
45792;SDS011;31495;42.740;22.908;2023-08-07T05:01:55;3.80;;;3.30;;
45792;SDS011;31495;42.740;22.908;2023-08-07T05:02:54;4.20;;;3.38;;
45792;SDS011;31495;42.740;22.908;2023-08-07T05:03:54;4.63;;;3.10;;
45792;SDS011;31495;42.740;22.908;2023-08-07T05:04:53;3.97;;;2.80;;
45792;SDS011;31495;42.740;22.908;2023-08-07T05:06:01;3.90;;;2.75;;
45792;SDS011;31495;42.740;22.908;2023-08-07T05:07:01;3.70;;;2.75;;
45792;SDS011;31495;42.740;22.908;2023-08-07T05:08:01;3.70;;;2.50;;
45792;SDS011;31495;42.740;22.908;2023-08-07T05:09:00;3.17;;;2.47;;
45792;SDS011;31495;42.740;22.908;2023-08-07T05:10:01;8.10;;;2.75;;
45792;SDS011;31495;42.740;22.908;2023-08-07T05:11:01;3.78;;;2.67;;
45792;SDS011;31495;42.740;22.908;2023-08-07T05:12:00;4.63;;;2.47;;
45792;SDS011;31495;42.740;22.908;2023-08-07T05:13:00;4.18;;;2.40;;
45792;SDS011;31495;42.740;22.908;2023-08-07T05:13:59;3.67;;;2.92;;
45792;SDS011;31495;42.740;22.908;2023-08-07T05:14:58;4.47;;;2.65;;
45792;SDS011;31495;42.740;22.908;2023-08-07T05:15:58;3.75;;;2.70;;
45792;SDS011;31495;42.740;22.908;2023-08-07T05:16:57;3.47;;;2.53;;
45792;SDS011;31495;42.740;22.908;2023-08-07T05:17:57;4.28;;;2.50;;
45792;SDS011;31495;42.740;22.908;2023-08-07T05:18:56;7.60;;;3.17;;
45792;SDS011;31495;42.740;22.908;2023-08-07T05:19:55;3.28;;;2.58;;
45792;SDS011;31495;42.740;22.908;2023-08-07T05:20:55;3.10;;;2.13;;
45792;SDS011;31495;42.740;22.908;2023-08-07T05:21:54;3.28;;;2.42;;
45792;SDS011;31495;42.740;22.908;2023-08-07T05:22:53;4.68;;;2.60;;
45792;SDS011;31495;42.740;22.908;2023-08-07T05:23:55;3.05;;;2.28;;
45792;SDS011;31495;42.740;22.908;2023-08-07T05:24:54;3.63;;;2.05;;
45792;SDS011;31495;42.740;22.908;2023-08-07T05:25:54;5.22;;;2.42;;
45792;SDS011;31495;42.740;22.908;2023-08-07T05:26:53;4.85;;;2.60;;
45792;SDS011;31495;42.740;22.908;2023-08-07T05:27:53;2.92;;;1.95;;
45792;SDS011;31495;42.740;22.908;2023-08-07T05:28:52;2.80;;;2.30;;
45792;SDS011;31495;42.740;22.908;2023-08-07T05:29:53;3.10;;;2.40;;
45792;SDS011;31495;42.740;22.908;2023-08-07T05:30:53;2.47;;;2.20;;
45792;SDS011;31495;42.740;22.908;2023-08-07T05:31:52;6.55;;;2.45;;
45792;SDS011;31495;42.740;22.908;2023-08-07T05:32:51;4.63;;;2.60;;
45792;SDS011;31495;42.740;22.908;2023-08-07T05:33:51;3.33;;;1.80;;
45792;SDS011;31495;42.740;22.908;2023-08-07T05:34:50;3.30;;;1.92;;
45792;SDS011;31495;42.740;22.908;2023-08-07T05:35:50;5.18;;;2.35;;
45792;SDS011;31495;42.740;22.908;2023-08-07T05:36:51;3.90;;;2.35;;
45792;SDS011;31495;42.740;22.908;2023-08-07T05:37:51;2.35;;;1.67;;
45792;SDS011;31495;42.740;22.908;2023-08-07T05:38:50;6.90;;;2.30;;
45792;SDS011;31495;42.740;22.908;2023-08-07T05:39:50;4.85;;;2.72;;
45792;SDS011;31495;42.740;22.908;2023-08-07T05:40:49;2.85;;;2.03;;
45792;SDS011;31495;42.740;22.908;2023-08-07T05:41:49;2.60;;;1.92;;
45792;SDS011;31495;42.740;22.908;2023-08-07T05:42:48;2.35;;;1.70;;
45792;SDS011;31495;42.740;22.908;2023-08-07T05:43:48;4.43;;;2.08;;
45792;SDS011;31495;42.740;22.908;2023-08-07T05:44:47;2.78;;;2.00;;
45792;SDS011;31495;42.740;22.908;2023-08-07T05:45:47;4.30;;;2.08;;
45792;SDS011;31495;42.740;22.908;2023-08-07T05:46:48;2.17;;;1.63;;
45792;SDS011;31495;42.740;22.908;2023-08-07T05:47:47;2.55;;;1.80;;
45792;SDS011;31495;42.740;22.908;2023-08-07T05:48:47;3.17;;;2.10;;
45792;SDS011;31495;42.740;22.908;2023-08-07T05:49:46;2.50;;;1.92;;
45792;SDS011;31495;42.740;22.908;2023-08-07T05:50:45;3.45;;;2.08;;
45792;SDS011;31495;42.740;22.908;2023-08-07T05:51:45;2.80;;;2.10;;
45792;SDS011;31495;42.740;22.908;2023-08-07T05:52:45;2.78;;;1.83;;
45792;SDS011;31495;42.740;22.908;2023-08-07T05:53:45;2.30;;;1.77;;
45792;SDS011;31495;42.740;22.908;2023-08-07T05:54:44;3.15;;;1.92;;
45792;SDS011;31495;42.740;22.908;2023-08-07T05:55:44;4.28;;;2.40;;
45792;SDS011;31495;42.740;22.908;2023-08-07T05:56:43;5.15;;;3.05;;
45792;SDS011;31495;42.740;22.908;2023-08-07T05:57:42;3.65;;;2.00;;
45792;SDS011;31495;42.740;22.908;2023-08-07T05:58:42;3.17;;;1.60;;